createdAt,value
2019-01-24T00:02:12.756Z,80.00
2019-01-24T00:04:44.123Z,79.96
2019-01-24T00:07:15.770Z,80.10
2019-01-24T00:09:47.360Z,80.37
2019-01-24T00:12:18.857Z,80.40
2019-01-24T00:14:50.174Z,80.37
2019-01-24T00:17:21.633Z,80.00
2019-01-24T00:19:53.271Z,80.24
2019-01-24T00:22:24.660Z,80.28
2019-01-24T00:24:55.996Z,79.96
2019-01-24T00:27:27.364Z,81.06
2019-01-24T00:29:58.869Z,80.87
2019-01-24T00:32:30.160Z,80.76
2019-01-24T00:35:01.581Z,80.82
2019-01-24T00:37:33.107Z,80.79
2019-01-24T00:40:05.047Z,80.94
2019-01-24T00:42:36.315Z,80.87
2019-01-24T00:45:08.688Z,80.98
2019-01-24T00:47:40.165Z,80.79
2019-01-24T00:50:11.763Z,80.54
2019-01-24T00:52:43.354Z,80.43
2019-01-24T00:55:15.471Z,80.38
2019-01-24T00:57:46.694Z,80.75
2019-01-24T01:00:20.937Z,80.92
2019-01-24T01:02:52.491Z,80.83
2019-01-24T01:05:24.005Z,80.84
2019-01-24T01:07:55.665Z,80.76
2019-01-24T01:10:27.408Z,80.69
2019-01-24T01:12:58.760Z,80.91
2019-01-24T01:15:30.139Z,80.96
2019-01-24T01:18:01.502Z,81.64
2019-01-24T01:20:32.784Z,81.96
2019-01-24T01:23:04.559Z,82.36
2019-01-24T01:25:36.348Z,82.57
2019-01-24T01:28:08.057Z,83.11
2019-01-24T01:30:39.785Z,82.77
2019-01-24T01:33:11.380Z,82.63
2019-01-24T01:35:43.131Z,82.52
2019-01-24T01:38:14.439Z,82.65
2019-01-24T01:40:45.738Z,82.50
2019-01-24T01:43:17.081Z,82.42
2019-01-24T01:45:48.359Z,82.13
2019-01-24T01:48:19.819Z,81.75
2019-01-24T01:50:51.256Z,81.09
2019-01-24T01:53:22.580Z,80.44
2019-01-24T01:55:54.214Z,80.56
2019-01-24T01:58:25.782Z,80.24
2019-01-24T02:00:57.032Z,80.20
2019-01-24T02:03:28.493Z,80.57
2019-01-24T02:05:59.770Z,80.75
2019-01-24T02:08:31.193Z,80.41
2019-01-24T02:11:02.827Z,80.54
2019-01-24T02:13:34.379Z,80.58
2019-01-24T02:16:06.057Z,80.72
2019-01-24T02:18:37.360Z,80.65
2019-01-24T02:21:08.607Z,80.54
2019-01-24T02:23:40.198Z,80.55
2019-01-24T02:26:12.855Z,80.61
2019-01-24T02:28:44.525Z,80.53
2019-01-24T02:31:16.168Z,80.55
2019-01-24T02:33:47.561Z,80.65
2019-01-24T02:36:18.997Z,80.45
2019-01-24T02:38:50.841Z,80.61
2019-01-24T02:41:22.308Z,80.66
2019-01-24T02:43:53.950Z,80.66
2019-01-24T02:46:25.527Z,80.85
2019-01-24T02:48:57.042Z,80.49
2019-01-24T02:51:28.498Z,80.77
2019-01-24T02:53:59.943Z,80.79
2019-01-24T02:56:31.480Z,80.84
2019-01-24T02:59:02.858Z,80.80
2019-01-24T03:01:34.351Z,80.53
2019-01-24T03:04:06.325Z,80.65
2019-01-24T03:06:37.649Z,80.62
2019-01-24T03:09:09.362Z,81.15
2019-01-24T03:11:41.130Z,81.14
2019-01-24T03:14:13.637Z,81.25
2019-01-24T03:16:45.198Z,81.31
2019-01-24T03:19:16.610Z,81.07
2019-01-24T03:21:48.351Z,80.91
2019-01-24T03:24:19.697Z,80.78
2019-01-24T03:26:52.337Z,81.02
2019-01-24T03:29:23.756Z,80.54
2019-01-24T03:31:55.520Z,80.60
2019-01-24T03:34:27.156Z,80.51
2019-01-24T03:36:58.565Z,80.61
2019-01-24T03:39:30.182Z,80.29
2019-01-24T03:42:01.745Z,80.13
2019-01-24T03:44:34.121Z,79.84
2019-01-24T03:47:05.486Z,79.61
2019-01-24T03:49:36.748Z,79.39
2019-01-24T03:52:08.263Z,79.02
2019-01-24T03:54:39.647Z,79.11
2019-01-24T03:57:11.044Z,78.84
2019-01-24T03:59:42.469Z,79.33
2019-01-24T04:02:14.019Z,79.15
2019-01-24T04:04:45.614Z,79.25
2019-01-24T04:07:17.087Z,79.19
2019-01-24T04:09:48.568Z,79.05
2019-01-24T04:12:20.082Z,78.89
2019-01-24T04:14:51.394Z,78.71
2019-01-24T04:17:23.055Z,78.37
2019-01-24T04:19:54.606Z,78.12
2019-01-24T04:22:26.192Z,78.67
2019-01-24T04:24:57.709Z,78.54
2019-01-24T04:27:29.059Z,78.46
2019-01-24T04:30:00.513Z,78.15
2019-01-24T04:32:32.004Z,78.55
2019-01-24T04:35:03.605Z,78.59
2019-01-24T04:37:35.225Z,78.63
2019-01-24T04:40:08.287Z,78.68
2019-01-24T04:42:40.004Z,78.76
2019-01-24T04:45:12.870Z,78.96
2019-01-24T04:47:44.417Z,79.13
2019-01-24T04:50:16.976Z,79.00
2019-01-24T04:52:48.407Z,78.95
2019-01-24T04:55:21.358Z,79.06
2019-01-24T04:57:52.715Z,79.03
2019-01-24T05:00:31.882Z,78.85
2019-01-24T05:03:03.567Z,78.75
2019-01-24T05:05:35.128Z,78.81
2019-01-24T05:08:06.695Z,78.93
2019-01-24T05:10:38.594Z,78.87
2019-01-24T05:13:09.996Z,78.87
2019-01-24T05:15:41.653Z,78.91
2019-01-24T05:18:13.217Z,79.51
2019-01-24T05:20:44.824Z,79.97
2019-01-24T05:23:16.259Z,80.88
2019-01-24T05:25:47.593Z,81.42
2019-01-24T05:28:18.841Z,82.71
2019-01-24T05:30:50.295Z,83.25
2019-01-24T05:33:21.795Z,84.31
2019-01-24T05:35:53.129Z,84.73
2019-01-24T05:38:24.850Z,85.32
2019-01-24T05:40:56.282Z,85.67
2019-01-24T05:43:27.777Z,85.91
2019-01-24T05:45:59.118Z,86.03
2019-01-24T05:48:30.936Z,86.15
2019-01-24T05:51:02.439Z,86.07
2019-01-24T05:53:34.197Z,85.93
2019-01-24T05:56:05.624Z,85.89
2019-01-24T05:58:37.442Z,85.64
2019-01-24T06:01:09.914Z,85.61
2019-01-24T06:03:42.549Z,85.52
2019-01-24T06:06:14.817Z,85.40
2019-01-24T06:08:46.441Z,85.07
2019-01-24T06:11:18.192Z,85.07
2019-01-24T06:13:49.800Z,84.77
2019-01-24T06:16:21.521Z,84.47
2019-01-24T06:18:53.177Z,84.05
2019-01-24T06:21:24.677Z,83.90
2019-01-24T06:23:56.486Z,83.74
2019-01-24T06:26:28.053Z,83.51
2019-01-24T06:28:59.876Z,83.10
2019-01-24T06:31:31.684Z,82.66
2019-01-24T06:34:03.261Z,82.00
2019-01-24T06:36:34.950Z,81.84
2019-01-24T06:39:09.338Z,81.77
2019-01-24T06:41:40.576Z,81.49
2019-01-24T06:44:12.251Z,81.34
2019-01-24T06:46:43.712Z,81.43
2019-01-24T06:49:15.350Z,81.12
2019-01-24T06:51:47.051Z,80.96
2019-01-24T06:54:18.557Z,80.73
2019-01-24T06:56:50.335Z,80.15
2019-01-24T06:59:22.059Z,80.17
2019-01-24T07:01:53.526Z,80.47
2019-01-24T07:04:25.214Z,80.69
2019-01-24T07:06:56.811Z,80.45
2019-01-24T07:09:28.430Z,80.58
2019-01-24T07:12:00.040Z,80.50
2019-01-24T07:14:31.543Z,80.28
2019-01-24T07:17:02.917Z,79.92
2019-01-24T07:19:34.652Z,79.85
2019-01-24T07:22:06.498Z,79.28
2019-01-24T07:24:37.796Z,79.05
2019-01-24T07:27:09.399Z,78.80
2019-01-24T07:29:40.675Z,78.64
2019-01-24T07:32:12.227Z,78.75
2019-01-24T07:34:43.964Z,78.39
2019-01-24T07:37:15.733Z,78.51
2019-01-24T07:39:47.028Z,78.41
2019-01-24T07:42:18.606Z,78.35
2019-01-24T07:44:50.168Z,77.88
2019-01-24T07:47:21.679Z,78.04
2019-01-24T07:49:53.038Z,77.44
2019-01-24T07:52:24.595Z,77.60
2019-01-24T07:54:56.248Z,77.58
2019-01-24T07:57:28.007Z,77.69
2019-01-24T07:59:59.673Z,77.52
2019-01-24T08:02:31.222Z,77.60
2019-01-24T08:05:02.497Z,77.30
2019-01-24T08:07:34.321Z,76.46
2019-01-24T08:10:08.163Z,76.17
2019-01-24T08:12:39.471Z,76.00
2019-01-24T08:15:12.829Z,76.98
2019-01-24T08:17:44.746Z,77.19
2019-01-24T08:20:18.010Z,77.09
2019-01-24T08:22:49.765Z,76.67
2019-01-24T08:25:21.640Z,77.08
2019-01-24T08:27:53.380Z,77.44
2019-01-24T08:30:26.921Z,77.69
2019-01-24T08:32:58.418Z,78.11
2019-01-24T08:35:30.195Z,78.23
2019-01-24T08:38:01.732Z,78.13
2019-01-24T08:40:33.291Z,77.81
2019-01-24T08:43:06.350Z,77.81
2019-01-24T08:45:37.967Z,77.68
2019-01-24T08:48:09.496Z,78.09
2019-01-24T08:50:40.958Z,77.71
2019-01-24T08:53:12.514Z,77.48
2019-01-24T08:55:44.934Z,76.78
2019-01-24T08:58:16.406Z,76.93
2019-01-24T09:00:47.936Z,77.57
2019-01-24T09:03:19.467Z,77.87
2019-01-24T09:05:50.871Z,77.25
2019-01-24T09:08:22.337Z,76.62
2019-01-24T09:10:53.814Z,76.17
2019-01-24T09:13:25.708Z,75.92
2019-01-24T09:15:57.256Z,75.85
2019-01-24T09:18:29.155Z,76.54
2019-01-24T09:21:02.158Z,76.08
2019-01-24T09:23:33.526Z,75.40
2019-01-24T09:26:05.621Z,74.98
2019-01-24T09:28:37.494Z,74.18
2019-01-24T09:31:09.288Z,73.58
2019-01-24T09:33:40.811Z,73.49
2019-01-24T09:36:12.246Z,72.96
2019-01-24T09:38:43.962Z,73.05
2019-01-24T09:41:15.536Z,72.85
2019-01-24T09:43:47.185Z,73.12
2019-01-24T09:46:19.039Z,73.45
2019-01-24T09:48:50.816Z,73.82
2019-01-24T09:51:22.049Z,72.39
2019-01-24T09:53:53.671Z,73.56
2019-01-24T09:56:25.163Z,72.13
2019-01-24T09:58:57.058Z,71.65
2019-01-24T10:01:28.905Z,70.95
2019-01-24T10:04:00.535Z,71.06
2019-01-24T10:06:36.276Z,71.31
2019-01-24T10:09:08.635Z,71.27
2019-01-24T10:11:40.260Z,72.00
2019-01-24T10:14:13.210Z,73.55
2019-01-24T10:16:44.767Z,73.84
2019-01-24T10:19:16.692Z,75.36
2019-01-24T10:21:48.139Z,75.54
2019-01-24T10:24:19.762Z,76.78
2019-01-24T10:26:51.184Z,77.26
2019-01-24T10:29:22.937Z,77.79
2019-01-24T10:31:54.602Z,77.66
2019-01-24T10:34:26.350Z,78.16
2019-01-24T10:36:57.949Z,78.03
2019-01-24T10:39:29.796Z,78.21
2019-01-24T10:42:01.426Z,78.52
2019-01-24T10:44:33.245Z,79.32
2019-01-24T10:47:05.064Z,79.73
2019-01-24T10:49:36.689Z,79.18
2019-01-24T10:52:09.566Z,78.88
2019-01-24T10:54:41.198Z,79.20
2019-01-24T10:57:12.841Z,79.58
2019-01-24T10:59:44.105Z,79.46
2019-01-24T11:02:15.851Z,79.25
2019-01-24T11:04:47.555Z,79.25
2019-01-24T11:07:19.518Z,78.56
2019-01-24T11:09:50.908Z,77.67
2019-01-24T11:12:22.642Z,77.68
2019-01-24T11:14:54.065Z,77.66
2019-01-24T11:17:25.577Z,78.38
2019-01-24T11:19:57.111Z,78.09
2019-01-24T11:22:28.690Z,77.93
2019-01-24T11:25:00.361Z,77.89
2019-01-24T11:27:31.914Z,78.05
2019-01-24T11:30:03.619Z,77.01
2019-01-24T11:32:35.495Z,76.51
2019-01-24T11:35:09.678Z,76.99
2019-01-24T11:37:41.537Z,76.40
2019-01-24T11:40:14.962Z,76.14
2019-01-24T11:42:46.855Z,76.19
2019-01-24T11:45:19.256Z,76.11
2019-01-24T11:47:50.758Z,75.74
2019-01-24T11:50:22.262Z,75.27
2019-01-24T11:52:53.820Z,74.87
2019-01-24T11:55:25.360Z,74.75
2019-01-24T11:57:56.757Z,74.76
2019-01-24T12:00:33.213Z,74.37
2019-01-24T12:03:05.357Z,74.05
2019-01-24T12:05:36.923Z,73.89
2019-01-24T12:08:09.281Z,74.12
2019-01-24T12:10:40.629Z,74.71
2019-01-24T12:13:12.393Z,74.86
2019-01-24T12:15:44.042Z,73.98
2019-01-24T12:18:15.745Z,74.67
2019-01-24T12:20:47.388Z,74.97
2019-01-24T12:23:18.635Z,75.67
2019-01-24T12:25:49.937Z,76.01
2019-01-24T12:28:21.210Z,76.02
2019-01-24T12:30:52.585Z,76.20
2019-01-24T12:33:24.045Z,77.05
2019-01-24T12:35:55.298Z,76.38
2019-01-24T12:38:26.932Z,76.46
2019-01-24T12:40:58.326Z,76.98
2019-01-24T12:43:29.704Z,77.00
2019-01-24T12:46:01.019Z,78.17
2019-01-24T12:48:32.647Z,79.33
2019-01-24T12:51:04.011Z,79.61
2019-01-24T12:53:35.586Z,80.50
2019-01-24T12:56:07.307Z,81.16
2019-01-24T12:58:39.227Z,81.77
2019-01-24T13:01:11.827Z,81.31
2019-01-24T13:03:43.421Z,81.90
2019-01-24T13:06:15.084Z,81.85
2019-01-24T13:08:46.650Z,82.42
2019-01-24T13:11:18.670Z,82.61
2019-01-24T13:13:50.463Z,82.83
2019-01-24T13:16:21.798Z,83.77
2019-01-24T13:18:53.046Z,83.82
2019-01-24T13:21:24.675Z,83.84
2019-01-24T13:23:56.154Z,84.14
2019-01-24T13:26:27.828Z,84.31
2019-01-24T13:28:59.445Z,85.15
2019-01-24T13:31:31.246Z,85.12
2019-01-24T13:34:02.827Z,84.76
2019-01-24T13:36:34.492Z,85.21
2019-01-24T13:39:10.631Z,85.22
2019-01-24T13:41:42.763Z,85.89
2019-01-24T13:44:15.502Z,86.01
2019-01-24T13:46:47.020Z,86.08
2019-01-24T13:49:18.674Z,85.50
2019-01-24T13:51:50.112Z,85.95
2019-01-24T13:54:21.855Z,85.50
2019-01-24T13:56:53.307Z,85.61
2019-01-24T13:59:24.899Z,85.67
2019-01-24T14:01:56.337Z,85.82
2019-01-24T14:04:40.851Z,85.99
2019-01-24T14:07:12.453Z,86.30
2019-01-24T14:09:44.269Z,86.54
2019-01-24T14:12:15.976Z,87.18
2019-01-24T14:14:47.581Z,87.93
2019-01-24T14:17:18.804Z,88.11
2019-01-24T14:19:50.564Z,87.56
2019-01-24T14:22:22.236Z,88.06
2019-01-24T14:24:53.831Z,88.36
2019-01-24T14:27:25.562Z,88.76
2019-01-24T14:29:57.472Z,89.14
2019-01-24T14:32:29.068Z,89.08
2019-01-24T14:35:01.150Z,89.02
2019-01-24T14:37:39.565Z,89.08
2019-01-24T14:40:07.079Z,89.14
2019-01-24T14:42:38.747Z,88.97
2019-01-24T14:45:13.022Z,88.51
2019-01-24T14:47:44.652Z,88.43
2019-01-24T14:50:21.519Z,88.38
2019-01-24T14:52:53.586Z,88.23
2019-01-24T14:55:25.241Z,88.12
2019-01-24T14:57:57.027Z,88.47
2019-01-24T15:00:40.238Z,88.06
2019-01-24T15:03:12.047Z,87.84
2019-01-24T15:05:44.464Z,87.82
2019-01-24T15:08:16.247Z,87.52
2019-01-24T15:10:47.600Z,87.20
2019-01-24T15:13:25.147Z,87.18
2019-01-24T15:15:58.685Z,87.11
2019-01-24T15:18:30.293Z,87.06
2019-01-24T15:21:01.997Z,86.60
2019-01-24T15:23:33.449Z,85.69
2019-01-24T15:26:04.901Z,85.54
2019-01-24T15:28:36.871Z,86.09
2019-01-24T15:31:08.527Z,86.14
2019-01-24T15:33:39.944Z,86.77
2019-01-24T15:36:11.597Z,86.68
2019-01-24T15:38:43.228Z,87.33
2019-01-24T15:41:14.686Z,87.47
2019-01-24T15:43:46.339Z,87.73
2019-01-24T15:46:17.939Z,88.05
2019-01-24T15:48:49.523Z,87.83
2019-01-24T15:51:21.324Z,87.93
2019-01-24T15:53:52.877Z,87.76
2019-01-24T15:56:24.216Z,87.92
2019-01-24T15:58:55.927Z,87.31
2019-01-24T16:01:27.609Z,87.94
2019-01-24T16:03:58.936Z,87.79
2019-01-24T16:06:30.753Z,87.81
2019-01-24T16:09:02.272Z,87.66
2019-01-24T16:11:35.440Z,86.95
2019-01-24T16:14:07.213Z,86.34
2019-01-24T16:16:38.884Z,87.02
2019-01-24T16:19:10.831Z,87.44
2019-01-24T16:21:42.283Z,87.36
2019-01-24T16:24:13.868Z,88.23
2019-01-24T16:26:45.557Z,88.10
2019-01-24T16:29:17.258Z,87.90
2019-01-24T16:31:49.128Z,87.86
2019-01-24T16:34:20.715Z,88.36
2019-01-24T16:36:52.560Z,88.29
2019-01-24T16:39:23.880Z,88.21
2019-01-24T16:41:55.479Z,88.46
2019-01-24T16:44:27.034Z,88.30
2019-01-24T16:46:58.925Z,87.64
2019-01-24T16:49:30.760Z,87.22
2019-01-24T16:52:02.273Z,87.09
2019-01-24T16:54:33.911Z,87.43
2019-01-24T16:57:05.328Z,87.09
2019-01-24T16:59:37.213Z,86.79
2019-01-24T17:02:08.762Z,86.96
2019-01-24T17:04:40.380Z,86.79
2019-01-24T17:07:11.937Z,87.02
2019-01-24T17:09:43.489Z,86.92
2019-01-24T17:12:15.159Z,86.63
2019-01-24T17:14:46.882Z,86.95
2019-01-24T17:17:18.539Z,86.96
2019-01-24T17:19:50.071Z,87.34
2019-01-24T17:22:21.705Z,87.05
2019-01-24T17:24:54.255Z,86.26
2019-01-24T17:27:25.786Z,86.47
2019-01-24T17:29:57.133Z,86.34
2019-01-24T17:32:29.610Z,86.19
2019-01-24T17:35:01.213Z,85.88
2019-01-24T17:37:32.679Z,85.92
2019-01-24T17:40:04.298Z,85.76
2019-01-24T17:42:35.854Z,85.58
2019-01-24T17:45:08.959Z,86.07
2019-01-24T17:47:40.439Z,86.04
2019-01-24T17:50:12.792Z,86.00
2019-01-24T17:52:44.348Z,85.97
2019-01-24T17:55:36.061Z,85.90
2019-01-24T17:58:09.984Z,86.27
2019-01-24T18:00:52.153Z,85.82
2019-01-24T18:03:23.926Z,85.56
2019-01-24T18:05:55.768Z,85.48
2019-01-24T18:08:31.234Z,85.24
2019-01-24T18:11:00.831Z,85.05
2019-01-24T18:13:32.535Z,84.35
2019-01-24T18:16:04.146Z,84.54
2019-01-24T18:18:35.671Z,83.40
2019-01-24T18:21:07.496Z,83.76
2019-01-24T18:23:39.277Z,83.68
2019-01-24T18:26:12.030Z,84.25
2019-01-24T18:28:43.805Z,83.92
2019-01-24T18:31:15.281Z,84.17
2019-01-24T18:33:47.126Z,84.50
2019-01-24T18:36:18.805Z,83.96
2019-01-24T18:38:50.266Z,83.39
2019-01-24T18:41:21.848Z,83.89
2019-01-24T18:43:53.667Z,84.10
2019-01-24T18:46:25.317Z,83.95
2019-01-24T18:48:56.914Z,83.75
2019-01-24T18:51:28.561Z,84.25
2019-01-24T18:54:00.273Z,83.63
2019-01-24T18:56:31.734Z,83.93
2019-01-24T18:59:03.368Z,83.46
2019-01-24T19:01:35.089Z,83.94
2019-01-24T19:04:06.854Z,83.23
2019-01-24T19:06:38.420Z,83.00
2019-01-24T19:09:11.129Z,82.53
2019-01-24T19:11:42.895Z,82.15
2019-01-24T19:14:14.339Z,81.81
2019-01-24T19:16:46.152Z,81.89
2019-01-24T19:19:17.896Z,82.32
2019-01-24T19:21:49.514Z,81.75
2019-01-24T19:24:21.039Z,81.39
2019-01-24T19:26:52.458Z,82.29
2019-01-24T19:29:24.062Z,82.21
2019-01-24T19:31:55.566Z,82.22
2019-01-24T19:34:27.353Z,82.48
2019-01-24T19:36:58.907Z,82.81
2019-01-24T19:39:30.643Z,82.70
2019-01-24T19:42:01.930Z,82.79
2019-01-24T19:44:33.558Z,83.16
2019-01-24T19:47:04.943Z,83.36
2019-01-24T19:49:36.518Z,83.25
2019-01-24T19:52:08.240Z,83.23
2019-01-24T19:54:39.734Z,82.66
2019-01-24T19:57:11.537Z,83.09
2019-01-24T19:59:42.966Z,82.83
2019-01-24T20:02:14.690Z,82.83
2019-01-24T20:04:46.277Z,83.31
2019-01-24T20:07:18.117Z,83.05
2019-01-24T20:09:49.942Z,83.07
2019-01-24T20:12:21.525Z,82.98
2019-01-24T20:14:52.863Z,83.15
2019-01-24T20:17:24.228Z,83.16
2019-01-24T20:19:55.825Z,82.76
2019-01-24T20:22:27.240Z,83.35
2019-01-24T20:24:58.659Z,83.10
2019-01-24T20:27:30.259Z,83.50
2019-01-24T20:30:01.955Z,83.58
2019-01-24T20:32:33.538Z,83.27
2019-01-24T20:35:06.772Z,83.13
2019-01-24T20:37:38.378Z,82.97
2019-01-24T20:40:11.616Z,83.06
2019-01-24T20:42:44.435Z,82.81
2019-01-24T20:45:16.298Z,82.38
2019-01-24T20:47:49.159Z,82.11
2019-01-24T20:50:20.671Z,81.84
2019-01-24T20:52:52.151Z,81.64
2019-01-24T20:55:23.755Z,81.24
2019-01-24T20:57:55.676Z,80.77
2019-01-24T21:00:27.638Z,80.74
2019-01-24T21:02:59.273Z,80.85
2019-01-24T21:05:31.089Z,81.10
2019-01-24T21:08:03.604Z,81.03
2019-01-24T21:10:35.364Z,81.06
2019-01-24T21:13:07.120Z,80.84
2019-01-24T21:15:39.933Z,80.53
2019-01-24T21:18:11.599Z,80.70
2019-01-24T21:20:43.197Z,80.95
2019-01-24T21:23:14.841Z,81.03
2019-01-24T21:30:47.574Z,80.86
2019-01-24T21:33:19.210Z,81.30
2019-01-24T21:35:50.579Z,81.22
2019-01-24T21:38:21.961Z,81.60
2019-01-24T21:40:53.323Z,81.41
2019-01-24T21:43:24.847Z,80.77
2019-01-24T21:45:56.309Z,80.66
2019-01-24T21:48:27.941Z,80.92
2019-01-24T21:50:59.413Z,81.08
2019-01-24T21:53:30.745Z,81.11
2019-01-24T21:56:02.003Z,80.93
2019-01-24T21:58:33.278Z,80.62
2019-01-24T22:01:05.273Z,80.45
2019-01-24T22:03:36.717Z,80.51
2019-01-24T22:06:09.533Z,80.63
2019-01-24T22:08:41.185Z,80.39
2019-01-24T22:11:12.691Z,79.61
2019-01-24T22:13:43.969Z,79.67
2019-01-24T22:16:15.465Z,79.57
2019-01-24T22:18:47.079Z,79.74
2019-01-24T22:21:18.706Z,80.13
2019-01-24T22:23:50.501Z,80.25
2019-01-24T22:26:22.122Z,80.43
2019-01-24T22:28:53.510Z,80.05
2019-01-24T22:31:24.906Z,79.66
2019-01-24T22:33:56.526Z,79.70
2019-01-24T22:36:28.091Z,79.67
2019-01-24T22:38:59.649Z,79.79
2019-01-24T22:41:31.269Z,79.62
2019-01-24T22:44:02.987Z,79.59
2019-01-24T22:46:34.354Z,80.02
2019-01-24T22:49:06.078Z,80.60
2019-01-24T22:51:37.564Z,80.23
2019-01-24T22:54:09.279Z,80.59
2019-01-24T22:56:40.798Z,80.88
2019-01-24T22:59:12.200Z,81.40
2019-01-24T23:01:53.846Z,80.79
2019-01-24T23:04:26.437Z,80.52
2019-01-24T23:06:57.952Z,80.63
2019-01-24T23:09:29.690Z,80.73
2019-01-24T23:12:01.227Z,81.29
2019-01-24T23:14:32.742Z,80.79
2019-01-24T23:17:04.244Z,80.74
2019-01-24T23:19:35.849Z,80.70
2019-01-24T23:22:07.562Z,80.36
2019-01-24T23:24:39.214Z,80.60
2019-01-24T23:27:10.765Z,80.68
2019-01-24T23:29:42.046Z,81.10
2019-01-24T23:32:13.530Z,81.52
2019-01-24T23:34:45.093Z,81.47
2019-01-24T23:37:16.651Z,80.97
2019-01-24T23:39:52.349Z,80.94
2019-01-24T23:42:21.229Z,81.29
2019-01-24T23:44:52.901Z,81.65
2019-01-24T23:47:24.502Z,81.11
2019-01-24T23:49:55.888Z,81.10
2019-01-24T23:52:27.179Z,81.41
2019-01-24T23:54:59.015Z,81.41
2019-01-24T23:57:30.569Z,81.44
